createdAt,value
2023-01-31T00:11:36.292Z,91.26
2023-01-31T00:14:05.777Z,89.22
2023-01-31T00:16:34.810Z,89.47
2023-01-31T00:19:04.125Z,89.12
2023-01-31T00:21:33.079Z,88.98
2023-01-31T00:24:01.593Z,88.74
2023-01-31T00:26:32.184Z,88.53
2023-01-31T00:29:01.799Z,88.48
2023-01-31T00:31:31.257Z,87.98
2023-01-31T00:33:59.991Z,87.58
2023-01-31T00:36:30.434Z,87.26
2023-01-31T00:38:59.835Z,87.07
2023-01-31T00:41:29.743Z,87.02
2023-01-31T00:44:00.383Z,87.06
2023-01-31T00:46:29.086Z,86.57
2023-01-31T00:48:57.758Z,86.45
2023-01-31T00:51:26.921Z,86.48
2023-01-31T00:53:56.466Z,86.57
2023-01-31T00:56:24.958Z,86.41
2023-01-31T00:58:55.886Z,86.23
2023-01-31T01:01:29.092Z,86.23
2023-01-31T01:03:58.208Z,86.26
2023-01-31T01:06:29.436Z,86.33
2023-01-31T01:09:00.051Z,86.23
2023-01-31T01:11:31.126Z,86.10
2023-01-31T01:13:59.815Z,86.06
2023-01-31T01:16:36.642Z,86.01
2023-01-31T01:19:06.827Z,85.95
2023-01-31T01:21:41.513Z,85.65
2023-01-31T01:24:15.121Z,85.65
2023-01-31T01:26:44.325Z,85.88
2023-01-31T01:29:13.111Z,85.91
2023-01-31T01:31:42.206Z,85.83
2023-01-31T01:34:15.142Z,85.57
2023-01-31T01:36:45.605Z,85.53
2023-01-31T01:39:17.692Z,85.66
2023-01-31T01:41:47.032Z,85.61
2023-01-31T01:44:52.345Z,85.70
2023-01-31T01:47:52.885Z,85.74
2023-01-31T01:50:27.609Z,85.51
2023-01-31T01:53:00.508Z,85.55
2023-01-31T01:55:36.448Z,85.32
2023-01-31T01:58:11.486Z,85.41
2023-01-31T02:00:39.917Z,85.40
2023-01-31T02:03:08.561Z,85.17
2023-01-31T02:05:43.384Z,85.10
2023-01-31T02:08:13.150Z,85.50
2023-01-31T02:11:04.103Z,85.51
2023-01-31T02:13:32.901Z,85.29
2023-01-31T02:16:01.580Z,84.87
2023-01-31T02:18:30.276Z,85.06
2023-01-31T02:21:23.931Z,84.96
2023-01-31T02:24:06.043Z,84.77
2023-01-31T02:27:06.985Z,84.60
2023-01-31T02:29:45.400Z,84.48
2023-01-31T02:32:23.100Z,84.51
2023-01-31T02:35:08.416Z,84.70
2023-01-31T02:37:41.567Z,84.82
2023-01-31T02:40:34.519Z,84.79
2023-01-31T02:43:27.578Z,84.38
2023-01-31T02:46:07.483Z,84.49
2023-01-31T02:48:45.334Z,84.72
2023-01-31T02:51:25.746Z,84.74
2023-01-31T02:54:00.234Z,84.54
2023-01-31T02:56:33.285Z,84.47
2023-01-31T02:59:13.976Z,84.53
2023-01-31T03:01:46.821Z,84.37
2023-01-31T03:04:15.657Z,84.41
2023-01-31T03:06:54.936Z,84.24
2023-01-31T03:09:38.932Z,83.99
2023-01-31T03:12:36.809Z,84.01
2023-01-31T03:15:21.145Z,83.98
2023-01-31T03:18:04.610Z,84.05
2023-01-31T03:21:10.349Z,84.16
2023-01-31T03:23:38.931Z,83.83
2023-01-31T03:26:07.628Z,83.80
2023-01-31T03:28:37.326Z,83.63
2023-01-31T03:31:20.148Z,83.75
2023-01-31T03:33:51.163Z,83.70
2023-01-31T03:36:30.732Z,83.67
2023-01-31T03:39:19.902Z,83.39
2023-01-31T03:42:07.749Z,83.26
2023-01-31T03:44:52.307Z,83.35
2023-01-31T03:47:41.676Z,83.46
2023-01-31T03:50:30.946Z,83.58
2023-01-31T03:53:04.980Z,83.19
2023-01-31T03:55:50.232Z,82.92
2023-01-31T03:58:20.146Z,82.66
2023-01-31T04:00:49.171Z,82.57
2023-01-31T04:03:25.201Z,82.54
2023-01-31T04:05:54.296Z,82.90
2023-01-31T04:08:22.984Z,82.50
2023-01-31T04:10:59.148Z,82.23
2023-01-31T04:13:27.629Z,82.02
2023-01-31T04:15:55.984Z,81.87
2023-01-31T04:18:24.595Z,81.85
2023-01-31T04:20:53.079Z,81.36
2023-01-31T04:23:21.562Z,81.24
2023-01-31T04:25:49.942Z,81.02
2023-01-31T04:28:18.323Z,81.09
2023-01-31T04:30:46.704Z,80.97
2023-01-31T04:33:15.197Z,80.90
2023-01-31T04:35:43.874Z,80.92
2023-01-31T04:38:12.256Z,80.50
2023-01-31T04:40:42.992Z,80.37
2023-01-31T04:43:12.509Z,79.98
2023-01-31T04:45:40.782Z,80.06
2023-01-31T04:48:10.016Z,79.79
2023-01-31T04:50:39.389Z,79.99
2023-01-31T04:53:09.489Z,80.40
2023-01-31T04:55:41.165Z,80.09
2023-01-31T04:58:10.015Z,79.96
2023-01-31T05:00:38.353Z,79.90
2023-01-31T05:03:07.357Z,80.21
2023-01-31T05:05:36.564Z,80.45
2023-01-31T05:08:05.941Z,80.34
2023-01-31T05:10:34.827Z,80.26
2023-01-31T05:13:03.203Z,80.56
2023-01-31T05:15:33.242Z,80.21
2023-01-31T05:18:04.724Z,80.27
2023-01-31T05:20:42.787Z,80.54
2023-01-31T05:23:11.382Z,80.54
2023-01-31T05:25:40.266Z,80.61
2023-01-31T05:28:08.750Z,80.97
2023-01-31T05:30:37.871Z,80.69
2023-01-31T05:33:07.972Z,80.66
2023-01-31T05:35:37.888Z,80.62
2023-01-31T05:38:06.293Z,80.56
2023-01-31T05:40:35.862Z,80.72
2023-01-31T05:43:04.373Z,81.13
2023-01-31T05:45:33.585Z,80.99
2023-01-31T05:48:02.434Z,80.77
2023-01-31T05:50:31.161Z,80.65
2023-01-31T05:53:11.413Z,80.92
2023-01-31T05:55:39.879Z,81.17
2023-01-31T05:58:08.370Z,81.19
2023-01-31T06:00:37.191Z,81.03
2023-01-31T06:03:05.677Z,80.81
2023-01-31T06:05:34.469Z,80.95
2023-01-31T06:08:03.871Z,80.90
2023-01-31T06:10:32.227Z,80.72
2023-01-31T06:13:00.707Z,80.56
2023-01-31T06:15:29.295Z,80.38
2023-01-31T06:17:58.004Z,80.48
2023-01-31T06:20:26.975Z,80.52
2023-01-31T06:22:55.466Z,80.52
2023-01-31T06:25:23.840Z,80.45
2023-01-31T06:27:56.116Z,80.59
2023-01-31T06:30:24.517Z,80.57
2023-01-31T06:32:53.407Z,80.45
2023-01-31T06:35:22.594Z,80.39
2023-01-31T06:37:51.375Z,80.57
2023-01-31T06:40:19.860Z,80.39
2023-01-31T06:42:48.347Z,80.35
2023-01-31T06:45:16.929Z,80.14
2023-01-31T06:47:45.876Z,79.84
2023-01-31T06:50:14.202Z,79.86
2023-01-31T06:52:42.891Z,79.70
2023-01-31T06:55:11.990Z,79.74
2023-01-31T06:57:49.584Z,79.85
2023-01-31T07:00:18.877Z,79.78
2023-01-31T07:02:47.577Z,80.07
2023-01-31T07:05:16.160Z,79.92
2023-01-31T07:07:45.155Z,79.87
2023-01-31T07:10:13.757Z,80.08
2023-01-31T07:12:42.228Z,79.97
2023-01-31T07:15:11.341Z,79.64
2023-01-31T07:17:40.010Z,79.48
2023-01-31T07:20:09.375Z,79.28
2023-01-31T07:22:38.208Z,79.27
2023-01-31T07:25:07.513Z,79.16
2023-01-31T07:27:36.194Z,79.03
2023-01-31T07:30:05.505Z,78.89
2023-01-31T07:32:34.704Z,78.59
2023-01-31T07:35:03.179Z,78.66
2023-01-31T07:37:32.238Z,78.66
2023-01-31T07:40:00.964Z,78.45
2023-01-31T07:42:29.881Z,78.32
2023-01-31T07:44:59.822Z,78.46
2023-01-31T07:47:31.332Z,78.43
2023-01-31T07:49:59.813Z,78.26
2023-01-31T07:52:28.292Z,78.26
2023-01-31T07:54:56.776Z,78.19
2023-01-31T07:57:25.156Z,78.23
2023-01-31T07:59:53.535Z,77.96
2023-01-31T08:02:40.245Z,77.86
2023-01-31T08:05:09.805Z,77.47
2023-01-31T08:07:38.644Z,77.37
2023-01-31T08:10:08.138Z,77.48
2023-01-31T08:12:38.580Z,77.29
2023-01-31T08:15:08.115Z,77.64
2023-01-31T08:17:36.467Z,77.62
2023-01-31T08:20:05.786Z,77.44
2023-01-31T08:22:34.455Z,77.50
2023-01-31T08:25:02.845Z,77.62
2023-01-31T08:27:31.621Z,77.54
2023-01-31T08:30:00.208Z,77.60
2023-01-31T08:32:29.243Z,77.57
2023-01-31T08:34:57.995Z,77.31
2023-01-31T08:37:26.785Z,77.04
2023-01-31T08:39:55.163Z,76.94
2023-01-31T08:42:23.852Z,77.15
2023-01-31T08:44:52.754Z,76.79
2023-01-31T08:47:25.260Z,76.60
2023-01-31T08:49:53.807Z,76.54
2023-01-31T08:52:22.698Z,76.63
2023-01-31T08:54:51.287Z,76.77
2023-01-31T08:57:21.198Z,76.80
2023-01-31T08:59:49.692Z,76.52
2023-01-31T09:02:18.168Z,76.52
2023-01-31T09:04:46.546Z,76.70
2023-01-31T09:07:14.927Z,76.87
2023-01-31T09:09:45.812Z,76.90
2023-01-31T09:12:14.254Z,76.80
2023-01-31T09:14:43.561Z,76.43
2023-01-31T09:17:12.143Z,75.75
2023-01-31T09:19:41.032Z,75.78
2023-01-31T09:22:09.514Z,75.98
2023-01-31T09:24:38.181Z,75.62
2023-01-31T09:27:07.012Z,75.46
2023-01-31T09:29:35.681Z,75.50
2023-01-31T09:32:04.482Z,75.25
2023-01-31T09:34:33.776Z,75.15
2023-01-31T09:37:02.273Z,75.50
2023-01-31T09:39:30.801Z,75.50
2023-01-31T09:42:03.426Z,75.48
2023-01-31T09:44:33.219Z,75.27
2023-01-31T09:47:14.985Z,75.19
2023-01-31T09:49:53.145Z,75.12
2023-01-31T09:52:21.527Z,75.33
2023-01-31T09:54:49.907Z,75.65
2023-01-31T09:57:40.820Z,75.63
2023-01-31T10:00:20.465Z,75.71
2023-01-31T10:03:03.490Z,75.62
2023-01-31T10:05:47.744Z,75.72
2023-01-31T10:08:31.778Z,76.00
2023-01-31T10:11:02.023Z,76.32
2023-01-31T10:13:46.783Z,76.37
2023-01-31T10:16:28.003Z,75.99
2023-01-31T10:19:22.256Z,76.05
2023-01-31T10:21:56.336Z,76.30
2023-01-31T10:24:40.939Z,76.54
2023-01-31T10:27:16.950Z,76.85
2023-01-31T10:29:47.940Z,77.01
2023-01-31T10:32:52.168Z,77.17
2023-01-31T10:35:43.788Z,77.07
2023-01-31T10:38:42.171Z,76.95
2023-01-31T10:41:20.489Z,77.12
2023-01-31T10:43:53.299Z,76.79
2023-01-31T10:46:21.830Z,76.74
2023-01-31T10:48:50.496Z,77.03
2023-01-31T10:51:53.247Z,77.09
2023-01-31T10:54:27.774Z,77.04
2023-01-31T10:56:57.908Z,77.06
2023-01-31T10:59:26.273Z,76.99
2023-01-31T11:01:55.099Z,76.99
2023-01-31T11:04:26.325Z,77.12
2023-01-31T11:06:54.794Z,76.91
2023-01-31T11:09:24.302Z,76.50
2023-01-31T11:11:57.594Z,76.34
2023-01-31T11:14:26.094Z,76.10
2023-01-31T11:17:18.243Z,76.20
2023-01-31T11:19:48.962Z,76.30
2023-01-31T11:22:25.970Z,76.50
2023-01-31T11:24:54.327Z,76.31
2023-01-31T11:27:37.978Z,76.19
2023-01-31T11:30:08.130Z,76.20
2023-01-31T11:32:37.303Z,76.28
2023-01-31T11:35:14.699Z,76.31
2023-01-31T11:37:54.301Z,76.25
2023-01-31T11:40:33.178Z,75.89
2023-01-31T16:09:41.274Z,89.64
2023-01-31T16:12:09.651Z,87.50
2023-01-31T16:14:38.341Z,87.45
2023-01-31T16:17:06.718Z,87.25
2023-01-31T16:19:38.377Z,86.88
2023-01-31T16:22:25.086Z,86.65
2023-01-31T16:24:58.990Z,86.19
2023-01-31T16:27:29.350Z,86.00
2023-01-31T16:29:59.086Z,85.72
2023-01-31T16:32:29.972Z,85.61
2023-01-31T16:35:01.741Z,85.44
2023-01-31T16:37:36.874Z,85.36
2023-01-31T16:40:28.095Z,85.02
2023-01-31T16:43:21.867Z,84.54
2023-01-31T16:45:58.568Z,84.11
2023-01-31T16:48:32.651Z,83.94
2023-01-31T16:51:22.082Z,84.05
2023-01-31T16:54:23.469Z,84.16
2023-01-31T16:57:22.593Z,84.16
2023-01-31T16:59:54.473Z,84.11
2023-01-31T17:02:31.200Z,84.20
2023-01-31T17:05:01.961Z,84.18
2023-01-31T17:07:33.019Z,84.35
2023-01-31T17:10:03.432Z,84.22
2023-01-31T17:12:37.038Z,84.07
2023-01-31T17:15:18.465Z,84.09
2023-01-31T17:17:51.513Z,84.24
2023-01-31T17:20:20.967Z,84.17
2023-01-31T17:23:00.914Z,83.88
2023-01-31T17:25:32.929Z,83.67
2023-01-31T17:28:01.666Z,83.62
2023-01-31T17:30:31.512Z,83.53
2023-01-31T17:33:00.114Z,83.67
2023-01-31T17:35:36.187Z,83.78
2023-01-31T17:38:05.113Z,83.73
2023-01-31T17:40:33.627Z,83.79
2023-01-31T17:43:04.199Z,83.84
2023-01-31T17:45:33.511Z,84.08
2023-01-31T17:48:02.296Z,83.93
2023-01-31T17:50:31.387Z,83.93
2023-01-31T17:52:59.768Z,83.73
2023-01-31T17:55:28.123Z,83.50
2023-01-31T17:57:56.837Z,83.62
2023-01-31T18:00:25.230Z,83.65
2023-01-31T18:02:55.672Z,83.57
2023-01-31T18:05:38.324Z,83.20
2023-01-31T18:08:09.000Z,83.33
2023-01-31T18:10:37.687Z,83.51
2023-01-31T18:13:06.783Z,83.64
2023-01-31T18:15:36.510Z,83.59
2023-01-31T18:18:08.966Z,83.54
2023-01-31T18:20:47.535Z,83.81
2023-01-31T18:23:15.868Z,83.96
2023-01-31T18:25:44.557Z,83.99
2023-01-31T18:28:13.452Z,83.96
2023-01-31T18:30:41.844Z,83.86
2023-01-31T18:33:10.308Z,83.95
2023-01-31T18:35:39.104Z,84.04
2023-01-31T18:38:07.684Z,84.23
2023-01-31T18:40:36.044Z,84.28
2023-01-31T18:43:04.445Z,84.13
2023-01-31T18:45:33.036Z,84.14
2023-01-31T18:48:01.431Z,84.07
2023-01-31T18:50:31.068Z,83.93
2023-01-31T18:52:59.504Z,83.85
2023-01-31T18:55:28.092Z,83.63
2023-01-31T18:57:57.086Z,83.70
2023-01-31T19:00:25.765Z,83.89
2023-01-31T19:02:54.979Z,84.05
2023-01-31T19:05:23.890Z,84.00
2023-01-31T19:07:52.582Z,83.76
2023-01-31T19:10:21.339Z,83.72
2023-01-31T19:12:50.134Z,83.86
2023-01-31T19:15:18.759Z,83.93
2023-01-31T19:17:47.504Z,83.71
2023-01-31T19:20:16.087Z,83.51
2023-01-31T19:22:44.472Z,83.14
2023-01-31T19:25:13.057Z,83.22
2023-01-31T19:27:41.742Z,83.37
2023-01-31T19:30:11.291Z,83.23
2023-01-31T19:32:39.731Z,82.84
2023-01-31T22:30:36.563Z,87.99
2023-01-31T22:33:05.045Z,85.47
2023-01-31T22:35:34.653Z,85.65
2023-01-31T22:38:04.982Z,85.73
2023-01-31T22:40:33.264Z,85.33
2023-01-31T22:43:02.046Z,84.65
2023-01-31T22:45:30.633Z,84.34
2023-01-31T22:47:59.732Z,84.08
2023-01-31T22:50:28.122Z,83.29
2023-01-31T22:52:56.596Z,82.78
2023-01-31T22:55:24.974Z,82.37
2023-01-31T22:57:53.561Z,81.96
2023-01-31T23:00:23.784Z,81.83
2023-01-31T23:02:52.577Z,81.62
2023-01-31T23:05:21.157Z,81.44
2023-01-31T23:07:49.956Z,81.02
2023-01-31T23:10:18.523Z,80.88
2023-01-31T23:12:47.389Z,80.65
2023-01-31T23:15:15.917Z,80.54
2023-01-31T23:18:04.692Z,80.43
2023-01-31T23:20:33.362Z,80.44
2023-01-31T23:23:01.836Z,80.59
2023-01-31T23:25:30.217Z,80.56
2023-01-31T23:28:02.703Z,80.71
2023-01-31T23:30:31.486Z,80.38
2023-01-31T23:33:01.032Z,80.03
2023-01-31T23:35:32.132Z,80.20
2023-01-31T23:38:00.719Z,80.39
2023-01-31T23:40:29.306Z,80.12
2023-01-31T23:42:57.786Z,80.09
2023-01-31T23:45:26.686Z,79.93
2023-01-31T23:47:55.060Z,79.88
2023-01-31T23:50:25.388Z,79.89
2023-01-31T23:52:54.895Z,80.01
2023-01-31T23:55:23.585Z,80.45
2023-01-31T23:57:52.069Z,80.87
